Sun, 27 Nov 2022 04:50:03 UTC | login

Information for RPM brotli-1.0.9-6.el9.aarch64.rpm

ID287556
Namebrotli
Version1.0.9
Release6.el9
Epoch
Archaarch64
SummaryLossless compression algorithm
DescriptionBrotli is a generic-purpose lossless compression algorithm that compresses data using a combination of a modern variant of the LZ77 algorithm, Huffman coding and 2nd order context modeling, with a compression ratio comparable to the best currently available general-purpose compression methods. It is similar in speed with deflate but offers more dense compression.
Build Time2021-08-09 19:37:02 GMT
Size311.84 KB
d8c661fb3454b88dca8f335d19627baf
LicenseMIT
Buildrootc9s-build-side-264-stack-gate-157122-24760
Provides
brotli = 1.0.9-6.el9
brotli(aarch-64) = 1.0.9-6.el9
Obsoletes No Obsoletes
Conflicts No Conflicts
Requires
ld-linux-aarch64.so.1()(64bit)
ld-linux-aarch64.so.1(GLIBC_2.17)(64bit)
libbrotli(aarch-64) = 1.0.9-6.el9
libc.so.6()(64bit)
libc.so.6(GLIBC_2.17)(64bit)
libc.so.6(GLIBC_2.33)(64bit)
libc.so.6(GLIBC_2.34)(64bit)
libm.so.6()(64bit)
libm.so.6(GLIBC_2.29)(64bit)
rpmlib(CompressedFileNames) <= 3.0.4-1
rpmlib(FileDigests) <= 4.6.0-1
rpmlib(PayloadFilesHavePrefix) <= 4.0-1
rpmlib(PayloadIsZstd) <= 5.4.18-1
rtld(GNU_HASH)
Recommends No Recommends
Suggests No Suggests
Supplements No Supplements
Enhances No Enhances
Files
1 through 4 of 4
Name ascending sort Size
/usr/bin/brotli709.70 KB
/usr/lib/.build-id0.00 B
/usr/lib/.build-id/250.00 B
/usr/lib/.build-id/25/381ddf0175ee30e7a9541fa59207182b45d36f26.00 B
Component of
Page:
1 through 50 of 2887 >>>
Buildroot descending sort Created State
c9s-build-300522-165897 2022-11-24 14:13:07 expired
c9s-build-300452-165405 2022-11-24 09:01:33 expired
c9s-build-300423-164993 2022-11-24 01:32:14 expired
c9s-build-300389-164915 2022-11-23 17:10:55 expired
c9s-build-300255-164253 2022-11-22 23:26:55 expired
c9s-build-300241-164253 2022-11-22 23:04:41 expired
c9s-build-300233-164253 2022-11-22 22:47:19 expired
c9s-build-300228-164172 2022-11-22 22:36:07 expired
c9s-pesign-build-300129-163525 2022-11-21 20:46:15 expired
c9s-build-299959-162857 2022-11-21 08:00:22 expired
c9s-build-299897-162423 2022-11-18 17:00:34 expired
c9s-build-299894-162423 2022-11-18 16:58:29 expired
c9s-build-299855-162342 2022-11-18 12:53:21 expired
c9s-build-299678-161011 2022-11-16 16:25:49 expired
c9s-pesign-build-299537-160288 2022-11-15 18:39:59 expired
c9s-build-299493-160125 2022-11-15 14:40:21 expired
c9s-build-299359-159948 2022-11-14 13:57:11 expired
c9s-build-299344-159948 2022-11-14 13:05:23 expired
c9s-build-299342-159948 2022-11-14 13:05:16 expired
c9s-build-299308-159705 2022-11-14 07:23:04 expired
c9s-build-299241-159128 2022-11-11 12:53:04 expired
c9s-build-299234-159049 2022-11-11 11:13:42 expired
c9s-build-299229-159049 2022-11-11 09:50:23 expired
c9s-build-side-1348-stack-gate-299165-158809 2022-11-10 17:32:01 expired
c9s-build-side-1348-stack-gate-299147-158730 2022-11-10 16:58:37 expired
c9s-build-299000-157954 2022-11-09 15:32:27 expired
c9s-build-298923-157723 2022-11-09 00:27:01 expired
c9s-build-298846-157433 2022-11-08 14:11:15 expired
c9s-build-298802-157125 2022-11-08 04:21:21 expired
c9s-build-298672-156274 2022-11-07 11:16:40 expired
c9s-build-298663-156122 2022-11-07 09:31:56 expired
c9s-build-298646-156122 2022-11-07 08:06:25 expired
c9s-build-298643-156122 2022-11-07 07:30:28 expired
c9s-build-298605-155657 2022-11-04 18:50:33 expired
c9s-build-298602-155657 2022-11-04 18:44:20 expired
c9s-build-298593-155657 2022-11-04 18:05:49 expired
c9s-build-298573-155352 2022-11-04 14:40:49 expired
c9s-build-298566-155352 2022-11-04 14:34:13 expired
c9s-build-298410-154674 2022-11-03 04:10:42 expired
c9s-build-298374-154599 2022-11-02 17:55:06 expired
c9s-build-298277-153994 2022-11-01 22:19:29 expired
c9s-build-298268-153994 2022-11-01 21:57:02 expired
c9s-build-298213-153919 2022-11-01 16:13:31 expired
c9s-build-298171-153843 2022-11-01 14:57:31 expired
c9s-build-side-740-stack-gate-298146-153916 2022-11-01 12:58:30 expired
c9s-build-298095-153696 2022-11-01 08:40:41 expired
c9s-build-298057-153623 2022-10-31 17:25:11 expired
c9s-build-297992-153112 2022-10-30 22:56:08 expired
c9s-pesign-build-297958-153117 2022-10-28 17:38:49 expired
c9s-build-297869-152817 2022-10-27 17:10:16 expired